Time;durP1;ratioP1;P1;durP2;ratioP2;P2;SDS_P1;SDS_P2;PMS_P1;PMS_P2;Temp;Humidity;BMP_temperature;BMP_pressure;BME280_temperature;BME280_humidity;BME280_pressure;Samples;Min_cycle;Max_cycle;Signal;HPM_P1;HPM_P2
2020/12/04 00:00:42;;;;;;;70.37;31.27;;;;;;;-0.24;89.53;99265.39;3728691;78;32634;-81
2020/12/04 00:05:43;;;;;;;72.97;32.63;;;;;;;-0.22;89.72;99247.14;3730964;78;98486;-81
2020/12/04 00:10:43;;;;;;;64.00;29.03;;;;;;;-0.09;89.81;99255.49;3727676;78;31865;-82
2020/12/04 00:15:44;;;;;;;71.43;30.73;;;;;;;-0.04;89.75;99252.57;3725153;78;98533;-82
2020/12/04 00:20:45;;;;;;;65.43;28.17;;;;;;;0.00;89.61;99275.13;3732743;78;26174;-82
2020/12/04 00:25:46;;;;;;;64.13;30.57;;;;;;;-0.12;89.81;99272.40;3720768;78;98240;-82
2020/12/04 00:30:47;;;;;;;59.17;26.20;;;;;;;-0.10;90.11;99271.49;3723746;78;26717;-82
2020/12/04 00:35:48;;;;;;;69.37;30.07;;;;;;;-0.06;90.34;99255.39;3727691;78;98735;-82
2020/12/04 00:40:49;;;;;;;68.07;30.87;;;;;;;-0.05;90.70;99256.41;3730579;78;25969;-82
2020/12/04 00:45:49;;;;;;;58.53;27.23;;;;;;;0.06;91.08;99257.55;3702313;78;98412;-81
2020/12/04 00:50:50;;;;;;;60.47;28.07;;;;;;;0.09;91.03;99250.69;3690349;78;26245;-82
2020/12/04 00:55:51;;;;;;;65.63;29.80;;;;;;;0.16;91.40;99246.85;3683887;77;98378;-81
2020/12/04 01:00:52;;;;;;;63.90;28.73;;;;;;;0.23;91.60;99241.70;3691545;78;33026;-82
2020/12/04 01:05:54;;;;;;;63.80;29.27;;;;;;;0.28;91.50;99242.83;3685511;78;98325;-81
2020/12/04 01:10:56;;;;;;;62.17;28.83;;;;;;;0.38;91.80;99242.35;3688854;78;33025;-82
2020/12/04 01:15:57;;;;;;;57.13;26.60;;;;;;;0.49;91.68;99230.75;3692214;77;98181;-82
2020/12/04 01:20:58;;;;;;;60.53;27.33;;;;;;;0.61;91.75;99228.02;3700158;78;33573;-81
2020/12/04 01:25:59;;;;;;;64.87;27.03;;;;;;;0.69;91.84;99217.66;3689917;78;98445;-81
2020/12/04 01:31:00;;;;;;;56.83;27.37;;;;;;;0.68;91.90;99203.89;3689900;78;33542;-81
2020/12/04 01:36:01;;;;;;;67.60;29.07;;;;;;;0.74;91.94;99202.52;3679830;78;98220;-82
2020/12/04 01:41:03;;;;;;;65.20;29.97;;;;;;;0.82;91.98;99197.53;3692372;78;33043;-81
2020/12/04 01:46:04;;;;;;;61.17;26.83;;;;;;;0.86;92.17;99186.24;3734099;77;98113;-81
2020/12/04 01:51:06;;;;;;;68.03;30.63;;;;;;;0.93;92.28;99172.13;3751744;77;33023;-82
2020/12/04 01:56:08;;;;;;;66.47;29.30;;;;;;;1.02;92.25;99170.84;3747412;77;98207;-81
2020/12/04 02:01:13;;;;;;;64.10;30.67;;;;;;;1.05;92.13;99158.53;3757237;77;32991;-82
2020/12/04 02:06:24;;;;;;;65.00;29.70;;;;;;;1.09;92.19;99149.36;3742555;77;98119;-81
2020/12/04 02:11:26;;;;;;;53.77;25.67;;;;;;;1.12;92.19;99139.20;3753787;77;33452;-81
2020/12/04 02:16:28;;;;;;;56.53;26.50;;;;;;;1.19;92.33;99133.17;3747443;77;98477;-81
2020/12/04 02:21:29;;;;;;;61.37;29.20;;;;;;;1.24;92.35;99131.56;3752523;77;33013;-82
2020/12/04 02:26:30;;;;;;;76.00;31.13;;;;;;;1.27;92.80;99133.59;3743494;77;98492;-79
2020/12/04 02:31:31;;;;;;;66.33;30.83;;;;;;;1.33;92.71;99128.14;3752972;78;32995;-81
2020/12/04 02:36:32;;;;;;;59.13;28.00;;;;;;;1.38;92.79;99132.72;3743465;77;98695;-81
2020/12/04 02:41:33;;;;;;;54.60;26.63;;;;;;;1.34;93.06;99112.09;3756773;77;31655;-80
2020/12/04 02:46:34;;;;;;;60.40;28.70;;;;;;;1.32;93.28;99092.11;3728963;77;98470;-80
2020/12/04 02:51:35;;;;;;;53.97;25.70;;;;;;;1.34;93.36;99080.38;3716343;78;29251;-81
2020/12/04 02:56:36;;;;;;;64.63;27.03;;;;;;;1.42;93.52;99078.63;3705907;78;98301;-81
2020/12/04 03:01:37;;;;;;;65.47;29.07;;;;;;;1.41;93.68;99072.41;3712767;78;26426;-81
2020/12/04 03:06:38;;;;;;;57.40;25.20;;;;;;;1.39;93.52;99053.57;3718592;78;98147;-80
2020/12/04 03:11:39;;;;;;;63.27;28.33;;;;;;;1.38;93.62;99048.70;3722111;78;32272;-80
2020/12/04 03:16:40;;;;;;;55.50;27.00;;;;;;;1.40;93.67;99045.09;3716088;78;98297;-80
2020/12/04 03:21:41;;;;;;;56.07;25.90;;;;;;;1.42;93.82;99034.68;3723865;78;31788;-80
2020/12/04 03:26:42;;;;;;;53.83;27.27;;;;;;;1.48;93.71;99042.77;3716315;78;98149;-78
2020/12/04 03:31:42;;;;;;;61.45;26.23;;;;;;;1.51;93.69;99023.66;3726960;78;31797;-79
2020/12/04 03:36:43;;;;;;;51.93;25.00;;;;;;;1.49;93.56;99017.81;3718502;78;98538;-80
2020/12/04 03:41:44;;;;;;;59.63;28.10;;;;;;;1.49;93.54;99012.39;3724423;78;25990;-80
2020/12/04 03:46:47;;;;;;;57.53;27.00;;;;;;;1.52;93.58;99015.73;3694006;78;98129;-79
2020/12/04 03:51:48;;;;;;;58.87;26.73;;;;;;;1.57;93.41;99016.83;3694472;78;35465;-80
2020/12/04 03:56:49;;;;;;;55.83;27.23;;;;;;;1.56;93.37;98999.80;3688678;78;98502;-80
2020/12/04 04:01:50;;;;;;;54.70;26.00;;;;;;;1.56;93.26;98978.66;3687636;78;36086;-80
2020/12/04 04:06:50;;;;;;;59.53;28.37;;;;;;;1.50;93.33;98981.43;3617158;79;98289;-81
2020/12/04 04:11:51;;;;;;;55.20;25.13;;;;;;;1.49;93.64;98984.70;3615336;80;34931;-78
2020/12/04 04:16:52;;;;;;;62.83;29.07;;;;;;;1.51;93.30;98972.16;3617925;80;98164;-79
2020/12/04 04:21:53;;;;;;;57.57;26.93;;;;;;;1.52;93.33;98959.61;3622309;78;35061;-79
2020/12/04 04:26:54;;;;;;;66.27;29.57;;;;;;;1.51;93.25;98958.59;3629832;80;98553;-78
2020/12/04 04:31:55;;;;;;;62.57;27.70;;;;;;;1.49;93.35;98952.16;3635074;80;35016;-80
2020/12/04 04:36:56;;;;;;;59.03;27.03;;;;;;;1.47;93.34;98944.17;3656600;78;98637;-80
2020/12/04 04:41:58;;;;;;;60.77;29.00;;;;;;;1.45;93.29;98947.81;3693114;78;32749;-79
2020/12/04 04:47:19;;;;;;;58.68;26.80;;;;;;;1.45;93.30;98937.77;3709163;78;98181;-79
2020/12/04 04:52:20;;;;;;;52.70;24.97;;;;;;;1.50;93.23;98933.99;3729877;78;32880;-78
2020/12/04 04:57:24;;;;;;;61.00;28.07;;;;;;;1.56;93.17;98927.95;3733940;78;98107;-80
2020/12/04 05:02:25;;;;;;;58.83;28.67;;;;;;;1.57;92.99;98927.36;3735650;78;32668;-79
2020/12/04 05:07:34;;;;;;;56.43;25.27;;;;;;;1.55;92.90;98922.88;3715904;78;98172;-80
2020/12/04 05:12:35;;;;;;;54.03;26.90;;;;;;;1.49;92.90;98909.38;3730793;78;33184;-79
2020/12/04 05:17:36;;;;;;;54.07;25.47;;;;;;;1.47;92.87;98900.24;3724838;78;97960;-78
2020/12/04 05:22:38;;;;;;;56.17;26.00;;;;;;;1.49;92.74;98891.17;3737202;78;32812;-78
2020/12/04 05:27:38;;;;;;;65.77;30.50;;;;;;;1.51;92.79;98886.20;3698699;78;98244;-80
2020/12/04 05:32:39;;;;;;;60.10;27.70;;;;;;;1.51;92.57;98878.08;3730823;78;32669;-79
2020/12/04 05:37:40;;;;;;;65.00;28.47;;;;;;;1.51;92.68;98880.78;3723419;78;97984;-80
2020/12/04 05:42:42;;;;;;;59.53;28.40;;;;;;;1.48;92.67;98868.52;3723404;78;33167;-80
2020/12/04 05:47:43;;;;;;;59.27;27.97;;;;;;;1.50;92.55;98879.78;3728214;78;97918;-80
2020/12/04 05:52:48;;;;;;;54.00;25.97;;;;;;;1.54;92.48;98893.61;3728039;78;33829;-80
2020/12/04 05:57:55;;;;;;;62.07;29.13;;;;;;;1.58;92.51;98881.52;3725627;78;98093;-80
2020/12/04 06:03:01;;;;;;;54.17;24.53;;;;;;;1.59;92.38;98885.20;3734335;78;32646;-80
2020/12/04 06:08:05;;;;;;;61.63;28.60;;;;;;;1.60;92.50;98880.58;3728286;78;98359;-80
2020/12/04 06:13:06;;;;;;;52.13;25.07;;;;;;;1.64;92.48;98912.04;3728346;78;32742;-79
2020/12/04 06:18:11;;;;;;;51.03;23.73;;;;;;;1.67;92.43;98904.57;3722822;78;98342;-80
2020/12/04 06:23:16;;;;;;;50.50;24.00;;;;;;;1.76;92.38;98911.91;3736577;78;26969;-80
2020/12/04 06:28:19;;;;;;;52.80;22.70;;;;;;;1.81;92.14;98912.98;3724804;78;98253;-80
2020/12/04 06:33:43;;;;;;;47.80;23.60;;;;;;;1.79;92.05;98917.19;3738013;78;32707;-79
2020/12/04 06:38:46;;;;;;;50.10;21.87;;;;;;;1.76;92.13;98920.63;3736537;78;33820;-80
2020/12/04 06:43:49;;;;;;;48.67;23.63;;;;;;;1.75;92.09;98917.13;3728850;78;98415;-79
2020/12/04 06:49:11;;;;;;;48.57;24.27;;;;;;;1.80;92.23;98930.41;3726875;78;32719;-79
2020/12/04 06:54:12;;;;;;;49.40;22.35;;;;;;;1.85;92.03;98927.42;3725348;78;98330;-79
2020/12/04 06:59:13;;;;;;;49.80;24.83;;;;;;;1.87;91.90;98922.41;3733092;78;32605;-79
2020/12/04 07:04:16;;;;;;;49.93;23.83;;;;;;;1.86;92.01;98924.15;3680011;78;98427;-79
2020/12/04 07:09:17;;;;;;;45.47;20.43;;;;;;;1.86;92.05;98930.92;3726428;78;32742;-79
2020/12/04 07:14:22;;;;;;;52.17;23.63;;;;;;;1.87;91.97;98937.33;3719926;78;98083;-79
2020/12/04 07:19:23;;;;;;;48.50;22.50;;;;;;;1.94;91.95;98933.98;3720008;78;32615;-79
2020/12/04 07:24:24;;;;;;;48.57;23.23;;;;;;;1.96;91.74;98934.41;3708031;78;98476;-78
2020/12/04 07:29:25;;;;;;;52.13;22.97;;;;;;;1.98;91.89;98936.21;3724726;78;32981;-79
2020/12/04 07:34:28;;;;;;;46.20;22.03;;;;;;;1.97;91.91;98931.34;3714692;78;98854;-79
2020/12/04 07:39:33;;;;;;;45.03;21.47;;;;;;;1.99;91.77;98927.73;3727132;78;33016;-80
2020/12/04 07:44:52;;;;;;;47.33;22.80;;;;;;;1.99;91.99;98929.08;3716032;77;98340;-80
2020/12/04 07:49:57;;;;;;;43.63;22.43;;;;;;;2.05;91.96;98925.50;3722211;78;32769;-79
2020/12/04 07:55:03;;;;;;;47.17;20.97;;;;;;;2.12;91.81;98929.70;3692485;78;98802;-80
2020/12/04 08:00:09;;;;;;;46.03;22.37;;;;;;;2.16;91.75;98936.00;3723870;78;33325;-80
2020/12/04 08:05:20;;;;;;;49.93;24.37;;;;;;;2.19;91.91;98933.94;3718789;78;98147;-80
2020/12/04 08:10:22;;;;;;;52.97;25.20;;;;;;;2.27;91.76;98939.14;3720986;78;32758;-79
2020/12/04 08:15:23;;;;;;;46.23;22.53;;;;;;;2.22;91.60;98922.34;3717263;78;98361;-77
2020/12/04 08:20:24;;;;;;;46.17;22.83;;;;;;;2.21;91.81;98917.52;3726230;78;32717;-77
2020/12/04 08:25:29;;;;;;;47.20;22.50;;;;;;;2.25;91.95;98907.48;3684495;78;98685;-79
2020/12/04 08:30:30;;;;;;;49.20;21.43;;;;;;;2.34;92.04;98912.13;3655199;78;32756;-79
2020/12/04 08:35:35;;;;;;;54.93;23.00;;;;;;;2.47;91.93;98911.41;3652222;79;98626;-80
2020/12/04 08:40:42;;;;;;;54.83;25.63;;;;;;;2.56;91.85;98916.05;3661964;79;32923;-80
2020/12/04 08:45:48;;;;;;;;;;;;;;;2.65;91.72;98922.80;3667327;78;98405;-78
2020/12/04 08:50:59;;;;;;;46.47;23.00;;;;;;;2.67;91.63;98913.72;3696773;78;32710;-79
2020/12/04 08:56:03;;;;;;;45.35;21.77;;;;;;;2.72;91.65;98919.41;3682750;78;98369;-79
2020/12/04 09:01:04;;;;;;;46.53;22.20;;;;;;;2.82;91.75;98914.73;3688626;78;32707;-79
2020/12/04 09:06:04;;;;;;;45.00;22.17;;;;;;;2.96;91.70;98929.94;3710102;78;98798;-79
2020/12/04 09:11:05;;;;;;;49.80;24.70;;;;;;;3.10;91.55;98935.03;3746531;78;32775;-79
2020/12/04 09:16:06;;;;;;;52.03;25.30;;;;;;;3.18;91.44;98927.78;3734409;78;98470;-78
2020/12/04 09:21:07;;;;;;;55.80;27.53;;;;;;;3.25;91.33;98944.98;3746769;78;33128;-77
2020/12/04 09:26:08;;;;;;;52.93;26.93;;;;;;;3.28;91.26;98938.80;3703735;78;98145;-77
2020/12/04 09:31:09;;;;;;;50.37;26.30;;;;;;;3.30;91.26;98947.41;3684933;78;33180;-78
2020/12/04 09:36:10;;;;;;;51.60;25.10;;;;;;;3.36;91.25;98941.06;3678129;78;98704;-79
2020/12/04 09:41:11;;;;;;;54.00;24.70;;;;;;;3.44;91.22;98935.96;3680993;78;31790;-78
2020/12/04 09:46:11;;;;;;;59.77;28.03;;;;;;;3.56;91.00;98928.36;3685567;78;98498;-79
2020/12/04 09:51:12;;;;;;;60.17;30.53;;;;;;;3.69;91.03;98917.48;3692071;78;26709;-79
2020/12/04 09:56:14;;;;;;;56.70;28.57;;;;;;;3.80;90.94;98912.98;3693930;78;98516;-79
2020/12/04 10:01:16;;;;;;;57.17;26.27;;;;;;;3.85;90.74;98914.02;3700887;78;27669;-80
2020/12/04 10:06:17;;;;;;;56.30;28.17;;;;;;;3.89;90.91;98909.98;3673809;78;98110;-79
2020/12/04 10:11:18;;;;;;;52.27;26.37;;;;;;;3.93;90.90;98905.38;3683988;78;26264;-79
2020/12/04 10:16:18;;;;;;;58.60;27.37;;;;;;;3.97;90.78;98906.97;3678623;78;98546;-79
2020/12/04 10:21:19;;;;;;;50.10;24.60;;;;;;;4.07;90.78;98899.52;3692497;78;26091;-78
2020/12/04 10:26:21;;;;;;;47.07;23.67;;;;;;;4.19;90.89;98897.91;3676449;78;98914;-78
2020/12/04 10:31:23;;;;;;;53.20;24.67;;;;;;;4.34;90.57;98898.84;3682894;78;25848;-78
2020/12/04 10:36:27;;;;;;;53.73;26.97;;;;;;;4.45;90.07;98903.83;3680859;78;98627;-79
2020/12/04 10:41:33;;;;;;;52.77;27.70;;;;;;;4.55;89.91;98903.17;3686055;78;27511;-78
2020/12/04 10:46:35;;;;;;;57.00;30.90;;;;;;;4.58;89.49;98893.66;3683742;78;98680;-78
2020/12/04 10:51:37;;;;;;;54.20;27.03;;;;;;;4.53;89.30;98891.88;3687268;78;27739;-78
2020/12/04 10:56:38;;;;;;;56.13;26.27;;;;;;;4.44;89.26;98883.20;3697870;77;98413;-78
2020/12/04 11:01:45;;;;;;;49.77;24.93;;;;;;;4.46;89.31;98876.80;3699221;78;26440;-78
2020/12/04 11:06:44;;;;;;;45.10;23.15;;;;;;;4.60;89.60;98878.31;3726149;77;98717;-79
2020/12/04 11:11:45;;;;;;;49.03;27.10;;;;;;;4.73;89.60;98882.31;3746175;77;26870;-79
2020/12/04 11:16:46;;;;;;;45.50;24.33;;;;;;;4.83;89.28;98877.55;3746588;77;98948;-79
2020/12/04 11:21:46;;;;;;;54.48;26.70;;;;;;;4.93;89.14;98877.66;3753915;77;25955;-80
2020/12/04 11:26:47;;;;;;;56.83;29.00;;;;;;;4.96;88.90;98863.25;3744709;77;98364;-80
2020/12/04 11:31:48;;;;;;;59.07;25.50;;;;;;;4.97;88.83;98868.91;3754521;77;27565;-79
2020/12/04 11:36:49;;;;;;;48.23;24.17;;;;;;;4.99;88.85;98871.27;3749008;77;98614;-78
2020/12/04 11:41:52;;;;;;;52.13;26.43;;;;;;;5.05;88.60;98874.63;3752695;77;26075;-77
2020/12/04 11:46:52;;;;;;;46.37;24.57;;;;;;;5.15;88.78;98863.03;3744651;77;98292;-78
2020/12/04 11:51:53;;;;;;;47.60;23.70;;;;;;;5.28;88.78;98850.64;3754835;77;33470;-79
2020/12/04 11:56:54;;;;;;;50.07;26.00;;;;;;;5.35;88.37;98841.73;3744128;77;98795;-77
2020/12/04 12:01:56;;;;;;;48.90;25.57;;;;;;;5.39;88.33;98840.58;3758471;77;33483;-78
2020/12/04 12:06:57;;;;;;;46.27;24.20;;;;;;;5.46;88.21;98837.13;3752625;77;98388;-78
2020/12/04 12:11:58;;;;;;;48.73;24.57;;;;;;;5.45;87.96;98843.15;3757325;77;33058;-78
2020/12/04 12:16:59;;;;;;;44.70;23.65;;;;;;;5.43;87.65;98835.94;3724117;77;98429;-77
2020/12/04 12:22:00;;;;;;;46.60;24.07;;;;;;;5.44;87.60;98852.50;3759365;77;33024;-77
2020/12/04 12:27:01;;;;;;;40.67;21.00;;;;;;;5.49;87.33;98849.41;3745724;77;98129;-78
2020/12/04 12:32:04;;;;;;;49.33;24.77;;;;;;;5.49;87.31;98870.45;3756782;77;32045;-78
2020/12/04 12:37:05;;;;;;;47.50;23.63;;;;;;;5.52;87.28;98881.98;3744413;77;98455;-78
2020/12/04 12:42:09;;;;;;;47.13;24.43;;;;;;;5.50;86.92;98870.64;3758166;77;33052;-78
2020/12/04 12:47:11;;;;;;;51.07;26.70;;;;;;;5.42;86.92;98859.50;3738215;77;98349;-78
2020/12/04 12:52:13;;;;;;;51.23;25.43;;;;;;;5.29;86.96;98845.38;3725832;77;33459;-78
2020/12/04 12:57:15;;;;;;;43.87;23.37;;;;;;;5.13;87.01;98858.52;3727091;78;98214;-78
2020/12/04 13:02:16;;;;;;;44.77;21.27;;;;;;;5.05;87.36;98846.58;3732587;78;34026;-78
2020/12/04 13:07:17;;;;;;;48.40;26.73;;;;;;;5.01;87.48;98843.03;3724403;78;98537;-78
2020/12/04 13:12:17;;;;;;;47.23;24.80;;;;;;;5.00;87.69;98834.66;3727970;78;33486;-78
2020/12/04 13:17:18;;;;;;;44.40;22.17;;;;;;;5.04;87.86;98837.63;3714572;78;98114;-78
2020/12/04 13:22:19;;;;;;;51.33;25.53;;;;;;;5.15;87.96;98834.97;3716700;78;33000;-78
2020/12/04 13:27:20;;;;;;;49.30;25.83;;;;;;;5.19;87.74;98830.33;3702372;78;98465;-78
2020/12/04 13:32:21;;;;;;;56.33;27.60;;;;;;;5.23;87.88;98824.33;3724796;78;32198;-78
2020/12/04 13:37:21;;;;;;;51.57;25.23;;;;;;;5.24;87.90;98836.80;3685299;78;98317;-78
2020/12/04 13:42:22;;;;;;;51.20;26.40;;;;;;;5.22;87.90;98839.89;3723821;78;32347;-78
2020/12/04 13:47:23;;;;;;;51.20;26.03;;;;;;;5.21;87.91;98847.08;3720916;78;98197;-78
2020/12/04 13:52:24;;;;;;;58.37;28.03;;;;;;;5.20;88.12;98845.52;3719916;78;32309;-78
2020/12/04 13:57:25;;;;;;;52.33;25.70;;;;;;;5.20;88.19;98844.95;3720844;77;98362;-77
2020/12/04 14:02:30;;;;;;;47.20;24.97;;;;;;;5.27;88.34;98841.47;3726920;78;31740;-78
2020/12/04 14:07:31;;;;;;;54.37;26.03;;;;;;;5.39;88.46;98837.06;3722478;78;98503;-79
2020/12/04 14:12:32;;;;;;;58.17;29.40;;;;;;;5.50;88.37;98844.72;3730551;78;31771;-78
2020/12/04 14:17:33;;;;;;;48.40;25.27;;;;;;;5.65;88.50;98843.64;3659494;78;98462;-78
2020/12/04 14:22:34;;;;;;;54.37;27.17;;;;;;;5.78;88.38;98846.27;3659723;79;31855;-77
2020/12/04 14:27:35;;;;;;;61.97;31.17;;;;;;;5.78;87.96;98849.75;3629329;79;98250;-79
2020/12/04 14:32:36;;;;;;;58.23;28.77;;;;;;;5.75;87.98;98849.74;3658138;79;31737;-77
2020/12/04 14:37:37;;;;;;;46.63;22.40;;;;;;;5.69;88.05;98844.45;3657364;78;98482;-78
2020/12/04 14:42:38;;;;;;;50.83;22.40;;;;;;;5.64;88.13;98846.97;3650949;79;32128;-78
2020/12/04 14:47:39;;;;;;;56.53;27.13;;;;;;;5.63;88.17;98835.83;3650899;78;98621;-78
2020/12/04 14:52:39;;;;;;;61.63;28.77;;;;;;;5.67;88.18;98841.34;3658912;79;28955;-78
2020/12/04 14:57:42;;;;;;;47.03;20.53;;;;;;;5.70;88.16;98836.45;3641263;78;98475;-79
2020/12/04 15:02:42;;;;;;;56.80;26.87;;;;;;;5.71;87.90;98838.02;3659749;79;36156;-78
2020/12/04 15:07:43;;;;;;;70.53;35.43;;;;;;;5.72;87.86;98846.43;3650649;78;98563;-78
2020/12/04 15:12:44;;;;;;;61.13;31.57;;;;;;;5.68;87.86;98849.12;3643246;79;35515;-78
2020/12/04 15:17:45;;;;;;;57.03;27.47;;;;;;;5.59;87.60;98847.34;3700551;77;98002;-78
2020/12/04 15:22:46;;;;;;;52.10;26.07;;;;;;;5.43;87.59;98850.15;3728940;78;35052;-78
2020/12/04 15:27:47;;;;;;;51.10;24.43;;;;;;;5.23;87.74;98853.72;3724732;78;98454;-77
2020/12/04 15:32:48;;;;;;;46.80;24.07;;;;;;;5.09;88.02;98848.19;3735335;78;36101;-77
2020/12/04 15:37:50;;;;;;;46.30;23.00;;;;;;;4.99;88.29;98844.00;3723442;78;98071;-77
2020/12/04 15:42:51;;;;;;;44.07;21.63;;;;;;;4.95;88.55;98862.27;3740106;78;35493;-78
2020/12/04 15:47:52;;;;;;;49.47;22.67;;;;;;;4.95;88.70;98855.45;3718786;77;98196;-78
2020/12/04 15:52:53;;;;;;;50.60;23.35;;;;;;;4.95;88.74;98868.52;3723204;78;35077;-77
2020/12/04 15:57:54;;;;;;;53.17;30.53;;;;;;;4.99;88.89;98863.08;3723501;78;98435;-80
2020/12/04 16:02:55;;;;;;;53.57;27.43;;;;;;;5.03;89.00;98876.94;3728956;78;32820;-80
2020/12/04 16:07:56;;;;;;;50.80;25.17;;;;;;;5.02;88.96;98873.25;3717376;78;98389;-80
2020/12/04 16:12:57;;;;;;;51.10;26.10;;;;;;;4.98;88.97;98865.05;3727673;78;32725;-80
2020/12/04 16:17:57;;;;;;;51.90;26.17;;;;;;;4.93;89.22;98856.42;3714278;78;98793;-80
2020/12/04 16:22:59;;;;;;;52.33;25.63;;;;;;;4.90;89.26;98862.05;3727757;78;33114;-80
2020/12/04 16:27:59;;;;;;;52.00;25.17;;;;;;;4.92;89.38;98870.61;3729757;78;98572;-80
2020/12/04 16:33:00;;;;;;;53.67;25.57;;;;;;;4.98;89.50;98871.06;3730374;78;33518;-80
2020/12/04 16:38:03;;;;;;;53.55;24.72;;;;;;;5.06;89.65;98869.95;3727912;78;98298;-80
2020/12/04 16:43:04;;;;;;;55.33;28.60;;;;;;;5.17;89.53;98874.33;3731826;78;27636;-80
2020/12/04 16:48:06;;;;;;;56.70;29.63;;;;;;;5.38;89.53;98892.78;3729842;78;98467;-80
2020/12/04 16:53:06;;;;;;;60.13;31.70;;;;;;;5.54;89.13;98872.25;3724405;78;25953;-80
2020/12/04 16:58:08;;;;;;;56.93;29.07;;;;;;;5.55;88.93;98869.72;3713763;77;97978;-80
2020/12/04 17:03:09;;;;;;;60.93;31.13;;;;;;;5.54;88.77;98875.55;3728505;78;26422;-81
2020/12/04 17:08:32;;;;;;;;;;;;;;;;;;;;;
2020/12/04 17:13:26;;;;;;;47.13;23.43;;;;;;;5.37;88.86;98875.66;3702631;78;26880;-81
2020/12/04 17:18:27;;;;;;;44.00;24.43;;;;;;;5.29;88.96;98884.94;3726705;78;98399;-81
2020/12/04 17:23:27;;;;;;;42.23;22.47;;;;;;;5.34;89.15;98892.77;3732332;78;27101;-81
2020/12/04 17:28:30;;;;;;;46.23;22.23;;;;;;;5.36;89.03;98870.56;3715038;78;98241;-81
2020/12/04 17:33:31;;;;;;;44.13;23.63;;;;;;;5.39;89.12;98873.31;3730745;78;26257;-81
2020/12/04 17:38:32;;;;;;;47.57;25.23;;;;;;;5.39;89.00;98877.41;3727812;76;97928;-81
2020/12/04 17:43:33;;;;;;;53.70;26.07;;;;;;;5.45;88.98;98877.84;3733492;78;26475;-81
2020/12/04 17:48:34;;;;;;;56.77;28.87;;;;;;;5.45;88.83;98881.94;3727174;78;97772;-81
2020/12/04 17:53:35;;;;;;;46.87;24.53;;;;;;;5.35;88.67;98870.38;3755016;77;26475;-81
2020/12/04 17:58:37;;;;;;;48.77;22.33;;;;;;;5.24;88.85;98877.70;3748377;77;97659;-81
2020/12/04 18:03:37;;;;;;;42.85;21.93;;;;;;;5.15;89.02;98884.84;3742247;77;98224;-81
2020/12/04 18:08:38;;;;;;;46.37;23.13;;;;;;;5.14;89.10;98886.58;3748001;77;26495;-81
2020/12/04 18:13:39;;;;;;;39.67;20.93;;;;;;;5.20;89.16;98888.59;3751020;77;98770;-81
2020/12/04 18:18:40;;;;;;;41.10;21.23;;;;;;;5.27;89.06;98900.11;3753077;77;25956;-81
2020/12/04 18:23:41;;;;;;;38.78;20.60;;;;;;;5.30;89.08;98908.91;3749883;77;98688;-81
2020/12/04 18:28:46;;;;;;;38.80;20.37;;;;;;;5.35;88.94;98907.20;3762886;77;33491;-81
2020/12/04 18:33:46;;;;;;;46.37;24.97;;;;;;;5.36;88.77;98902.70;3746123;77;98701;-81
2020/12/04 18:38:47;;;;;;;55.03;31.37;;;;;;;5.28;88.79;98913.94;3755575;77;33444;-81
2020/12/04 18:43:48;;;;;;;43.53;23.93;;;;;;;5.21;88.87;98911.16;3751185;77;98860;-81
2020/12/04 18:48:49;;;;;;;39.60;20.43;;;;;;;5.14;88.94;98922.03;3761779;77;32414;-82
2020/12/04 18:53:50;;;;;;;35.20;18.17;;;;;;;5.10;89.46;98900.75;3724773;77;98580;-81
2020/12/04 18:58:51;;;;;;;27.87;14.23;;;;;;;5.11;89.46;98903.11;3738580;78;32945;-81
2020/12/04 19:03:52;;;;;;;25.07;13.53;;;;;;;5.24;89.76;98911.79;3729130;78;98664;-81
2020/12/04 19:08:53;;;;;;;23.60;13.13;;;;;;;5.40;89.80;98920.48;3726488;78;30206;-82
2020/12/04 19:13:54;;;;;;;25.20;13.47;;;;;;;5.58;89.55;98930.93;3724151;78;98518;-81
2020/12/04 19:18:55;;;;;;;25.17;13.60;;;;;;;5.73;89.31;98923.05;3727104;78;32856;-81
2020/12/04 19:23:55;;;;;;;30.27;15.80;;;;;;;5.86;89.05;98927.84;3725083;78;98444;-82
2020/12/04 19:28:56;;;;;;;28.93;14.33;;;;;;;5.92;88.82;98919.48;3729235;78;32920;-81
2020/12/04 19:33:57;;;;;;;29.03;14.87;;;;;;;5.90;88.63;98917.69;3728466;78;98877;-81
2020/12/04 19:38:58;;;;;;;25.37;12.80;;;;;;;5.87;88.63;98911.65;3725372;78;30117;-81
2020/12/04 19:43:59;;;;;;;26.27;13.27;;;;;;;5.89;88.58;98922.20;3730565;78;98366;-81
2020/12/04 19:49:01;;;;;;;24.70;13.43;;;;;;;5.93;88.56;98921.04;3731456;78;29964;-82
2020/12/04 19:54:02;;;;;;;24.00;13.00;;;;;;;6.02;88.38;98920.12;3726402;78;98936;-82
2020/12/04 19:59:03;;;;;;;24.10;13.03;;;;;;;6.15;88.32;98927.37;3740619;78;30843;-82
2020/12/04 20:04:04;;;;;;;23.53;13.10;;;;;;;6.24;87.96;98942.27;3717324;78;98423;-82
2020/12/04 20:09:05;;;;;;;32.10;17.33;;;;;;;6.28;87.78;98952.60;3732696;78;29882;-81
2020/12/04 20:14:06;;;;;;;43.33;20.93;;;;;;;6.27;87.57;98946.18;3715295;78;98135;-81
2020/12/04 20:19:07;;;;;;;33.90;18.20;;;;;;;6.21;87.37;98947.11;3720880;78;26110;-82
2020/12/04 20:24:08;;;;;;;23.83;12.53;;;;;;;6.13;87.29;98952.92;3720532;78;98057;-83
2020/12/04 20:29:09;;;;;;;22.73;12.63;;;;;;;6.03;87.40;98957.75;3737992;78;34957;-83
2020/12/04 20:34:12;;;;;;;20.27;11.30;;;;;;;5.98;87.52;98952.08;3688233;78;98571;-84
2020/12/04 20:39:13;;;;;;;22.33;11.40;;;;;;;6.03;87.53;98960.48;3717753;78;34928;-83
2020/12/04 20:44:14;;;;;;;22.53;12.40;;;;;;;6.05;87.43;98970.45;3719274;78;98279;-82
2020/12/04 20:49:18;;;;;;;23.53;13.90;;;;;;;6.05;87.43;98970.45;3738343;78;35011;-82
2020/12/04 20:54:19;;;;;;;28.60;15.40;;;;;;;6.03;87.28;98970.83;3745685;77;98715;-83
2020/12/04 20:59:20;;;;;;;27.30;15.77;;;;;;;5.97;87.21;98971.56;3762027;77;34981;-83
2020/12/04 21:04:22;;;;;;;25.93;14.47;;;;;;;5.85;87.26;98978.71;3748329;77;98442;-82
2020/12/04 21:09:23;;;;;;;28.60;15.33;;;;;;;5.72;87.53;98972.74;3756607;77;36055;-82
2020/12/04 21:14:24;;;;;;;26.90;13.97;;;;;;;5.63;87.88;98972.28;3753865;77;98128;-82
2020/12/04 21:19:25;;;;;;;26.47;13.97;;;;;;;5.60;88.03;98982.60;3754765;77;36242;-82
2020/12/04 21:24:26;;;;;;;25.03;13.73;;;;;;;5.60;88.16;98978.51;3750650;77;98578;-84
2020/12/04 21:29:27;;;;;;;24.73;13.50;;;;;;;5.63;88.13;98978.33;3757834;77;35514;-80
2020/12/04 21:34:28;;;;;;;24.47;13.40;;;;;;;5.64;88.23;98985.35;3744537;77;98400;-83
2020/12/04 21:39:29;;;;;;;28.50;15.73;;;;;;;5.64;88.24;98993.54;3736128;77;34976;-82
2020/12/04 21:44:30;;;;;;;25.17;13.23;;;;;;;5.66;88.30;98995.30;3741225;77;98732;-83
2020/12/04 21:49:34;;;;;;;29.20;14.87;;;;;;;5.62;88.16;99006.80;3753383;77;35506;-83
2020/12/04 21:54:35;;;;;;;28.70;15.73;;;;;;;5.44;88.27;99006.64;3722932;78;98719;-83
2020/12/04 21:59:36;;;;;;;30.53;16.30;;;;;;;5.29;88.79;99003.58;3718120;78;35458;-84
2020/12/04 22:04:38;;;;;;;33.13;15.90;;;;;;;5.15;88.91;99002.66;3719344;78;98122;-83
2020/12/04 22:09:39;;;;;;;37.03;19.27;;;;;;;5.08;88.93;99005.33;3726694;78;35553;-82
2020/12/04 22:14:40;;;;;;;45.27;23.93;;;;;;;5.01;89.19;99003.88;3730043;77;98684;-82
2020/12/04 22:19:41;;;;;;;38.37;20.30;;;;;;;4.97;89.33;99002.48;3733440;78;34976;-83
2020/12/04 22:24:42;;;;;;;42.00;23.50;;;;;;;4.94;89.44;98994.27;3729603;78;98241;-83
2020/12/04 22:29:42;;;;;;;45.10;24.23;;;;;;;4.91;89.51;99010.02;3731582;78;35046;-82
2020/12/04 22:34:43;;;;;;;43.50;22.23;;;;;;;4.83;89.70;99005.08;3722709;78;98305;-82
2020/12/04 22:39:44;;;;;;;44.58;22.15;;;;;;;4.78;89.66;99009.49;3726458;78;34937;-81
2020/12/04 22:44:45;;;;;;;46.97;23.00;;;;;;;4.63;90.11;99009.72;3714657;77;98408;-81
2020/12/04 22:49:47;;;;;;;55.87;27.63;;;;;;;4.54;90.17;99014.66;3728148;78;32789;-82
2020/12/04 22:54:48;;;;;;;45.37;23.90;;;;;;;4.50;90.44;99013.82;3688737;78;98752;-82
2020/12/04 22:59:49;;;;;;;41.33;21.77;;;;;;;4.46;90.46;99016.50;3694503;78;33294;-82
2020/12/04 23:04:50;;;;;;;36.48;18.27;;;;;;;4.47;90.51;99017.30;3688225;78;98296;-81
2020/12/04 23:09:52;;;;;;;38.40;18.90;;;;;;;4.48;90.41;99020.99;3692882;78;32693;-82
2020/12/04 23:14:53;;;;;;;40.33;19.57;;;;;;;4.45;90.35;99017.66;3688743;78;98464;-82
2020/12/04 23:19:53;;;;;;;38.67;20.27;;;;;;;4.40;90.50;99011.74;3692518;78;32614;-82
2020/12/04 23:24:54;;;;;;;40.00;19.87;;;;;;;4.39;90.74;99015.63;3688238;78;98272;-82